Rechercher aéroport 
image banner adimage banner adimage banner ad
image banner ad

00CN - Kitchen Creek Helibase

Situé à Pine Valley, United States

ICAO - 00CN, IATA -

Données fournies par Airmate  

Information générale

Coordonnées: N32°43'39" W116°27'35"
Élévation : 3350 feet MSL.
 
Voir autres Aéroports à California

Données opérationnelles

Special qualification required
Heure actuelle UTC:
Heure actuelle locale:
Météo à : KSEE - Gillespie Field ( 49 km )
METAR: KSEE 251547Z 00000KT 6SM BR OVC015 21/17 A3001
Voir NOTAMs / SUP AIP / TFR affectant cet aéroport [VIEW]
Fréquences de communication: [VIEW]

Pistes:

Coordonnées de l'aéroport

Adresse: Pine Valley United States

Vue satellite de 00CN